createdAt,value
2018-04-25T00:02:05.778Z,98.70
2018-04-25T00:04:33.234Z,99.00
2018-04-25T00:07:00.690Z,98.80
2018-04-25T00:09:28.132Z,99.20
2018-04-25T00:11:56.325Z,98.90
2018-04-25T00:14:23.785Z,98.90
2018-04-25T00:16:51.258Z,99.10
2018-04-25T00:19:18.730Z,98.10
2018-04-25T00:21:46.185Z,98.10
2018-04-25T00:24:13.643Z,97.90
2018-04-25T00:26:41.127Z,97.80
2018-04-25T00:29:08.640Z,97.60
2018-04-25T00:31:36.108Z,97.80
2018-04-25T00:34:03.600Z,97.90
2018-04-25T00:36:31.028Z,98.70
2018-04-25T00:38:58.518Z,98.70
2018-04-25T00:41:25.982Z,98.80
2018-04-25T00:43:54.218Z,99.10
2018-04-25T00:46:21.671Z,99.10
2018-04-25T00:48:49.138Z,99.10
2018-04-25T00:51:16.595Z,99.20
2018-04-25T00:53:44.040Z,98.80
2018-04-25T00:56:11.499Z,99.20
2018-04-25T00:58:38.953Z,98.70
2018-04-25T01:01:06.409Z,98.10
2018-04-25T01:03:33.927Z,98.10
2018-04-25T01:06:01.418Z,97.80
2018-04-25T01:08:28.896Z,97.50
2018-04-25T01:10:56.358Z,98.40
2018-04-25T01:13:23.809Z,98.50
2018-04-25T01:15:51.282Z,98.60
2018-04-25T01:18:18.795Z,99.10
2018-04-25T01:20:46.300Z,99.60
2018-04-25T01:23:19.766Z,99.90
2018-04-25T01:25:47.250Z,99.30
2018-04-25T01:28:18.188Z,99.00
2018-04-25T01:30:45.697Z,98.60
2018-04-25T01:36:32.591Z,99.90
2018-04-25T01:42:00.263Z,99.90
2018-04-25T01:44:32.207Z,99.90
2018-04-25T01:47:04.261Z,99.90
2018-04-25T01:53:01.947Z,99.90
2018-04-25T01:55:41.418Z,99.90
2018-04-25T01:58:20.697Z,99.90
2018-04-25T02:01:00.016Z,99.90
2018-04-25T02:03:40.006Z,99.90
2018-04-25T02:06:07.475Z,99.90
2018-04-25T02:08:34.937Z,99.90
2018-04-25T02:11:02.407Z,99.90
2018-04-25T02:13:29.862Z,99.90
2018-04-25T02:15:57.802Z,99.90
2018-04-25T02:18:25.274Z,99.90
2018-04-25T02:20:52.750Z,99.90
2018-04-25T02:23:20.247Z,99.90
2018-04-25T02:25:48.462Z,99.90
2018-04-25T02:28:15.921Z,99.90
2018-04-25T02:30:43.374Z,99.90
2018-04-25T02:33:10.822Z,99.90
2018-04-25T02:35:38.305Z,99.90
2018-04-25T02:38:05.763Z,99.90
2018-04-25T02:40:33.221Z,99.90
2018-04-25T02:43:00.679Z,99.90
2018-04-25T02:45:28.145Z,99.90
2018-04-25T02:47:55.606Z,99.90
2018-04-25T02:50:23.058Z,99.90
2018-04-25T02:52:50.503Z,99.90
2018-04-25T02:55:17.962Z,99.90
2018-04-25T02:57:45.422Z,99.90
2018-04-25T03:00:12.878Z,99.90
2018-04-25T03:02:40.339Z,99.90
2018-04-25T03:05:07.794Z,99.90
2018-04-25T03:07:35.240Z,99.90
2018-04-25T03:10:02.697Z,99.90
2018-04-25T03:12:30.167Z,99.90
2018-04-25T03:14:57.614Z,99.90
2018-04-25T03:17:25.072Z,99.90
2018-04-25T03:19:52.528Z,99.90
2018-04-25T03:22:20.049Z,99.90
2018-04-25T03:24:47.495Z,99.90
2018-04-25T03:27:14.990Z,99.90
2018-04-25T03:29:42.431Z,99.90
2018-04-25T03:32:09.888Z,99.90
2018-04-25T03:34:37.342Z,99.90
2018-04-25T03:37:04.794Z,99.90
2018-04-25T03:39:32.249Z,99.90
2018-04-25T03:41:59.702Z,99.90
2018-04-25T03:44:27.141Z,99.90
2018-04-25T03:46:54.591Z,99.90
2018-04-25T03:49:22.074Z,99.90
2018-04-25T03:51:49.542Z,99.90
2018-04-25T03:54:16.986Z,99.90
2018-04-25T03:56:44.446Z,99.90
2018-04-25T03:59:11.983Z,99.90
2018-04-25T04:01:39.386Z,99.90
2018-04-25T04:04:06.829Z,99.90
2018-04-25T04:06:34.282Z,99.90
2018-04-25T04:09:01.730Z,99.90
2018-04-25T04:11:29.974Z,99.90
2018-04-25T04:13:57.411Z,99.90
2018-04-25T04:16:24.929Z,99.90
2018-04-25T04:18:53.126Z,99.90
2018-04-25T04:21:20.588Z,99.90
2018-04-25T04:23:48.029Z,99.90
2018-04-25T04:26:15.486Z,99.90
2018-04-25T04:28:42.947Z,99.90
2018-04-25T04:31:10.419Z,99.90
2018-04-25T04:33:37.870Z,99.90
2018-04-25T04:36:05.333Z,99.90
2018-04-25T04:38:32.771Z,99.90
2018-04-25T04:41:00.209Z,99.90
2018-04-25T04:43:27.702Z,99.90
2018-04-25T04:45:55.147Z,99.90
2018-04-25T04:48:22.614Z,99.90
2018-04-25T04:50:50.071Z,99.90
2018-04-25T04:53:17.539Z,99.90
2018-04-25T04:55:44.993Z,99.90
2018-04-25T04:58:12.452Z,99.90
2018-04-25T05:00:39.897Z,99.90
2018-04-25T05:03:07.366Z,99.90
2018-04-25T05:05:34.808Z,99.90
2018-04-25T05:08:02.273Z,99.90
2018-04-25T05:10:29.723Z,99.90
2018-04-25T05:12:57.179Z,99.90
2018-04-25T05:15:24.629Z,99.90
2018-04-25T05:17:52.096Z,99.90
2018-04-25T05:20:19.541Z,99.90
2018-04-25T05:22:47.001Z,99.90
2018-04-25T05:25:14.453Z,99.90
2018-04-25T05:27:41.990Z,99.90
2018-04-25T05:30:10.189Z,99.90
2018-04-25T05:32:37.666Z,99.90
2018-04-25T05:35:05.123Z,99.90
2018-04-25T05:37:32.597Z,99.90
2018-04-25T05:40:00.035Z,99.90
2018-04-25T05:42:27.507Z,99.90
2018-04-25T05:44:54.950Z,99.90
2018-04-25T05:47:22.448Z,99.90
2018-04-25T05:49:49.894Z,99.30
2018-04-25T05:52:17.365Z,98.80
2018-04-25T05:54:44.821Z,98.30
2018-04-25T05:57:12.284Z,97.90
2018-04-25T05:59:39.751Z,97.70
2018-04-25T06:02:07.978Z,97.10
2018-04-25T06:04:35.470Z,97.10
2018-04-25T06:07:02.991Z,97.00
2018-04-25T06:09:31.166Z,96.10
2018-04-25T06:11:58.631Z,96.10
2018-04-25T06:14:26.167Z,95.60
2018-04-25T06:16:53.634Z,95.20
2018-04-25T06:19:21.144Z,95.20
2018-04-25T06:21:48.655Z,94.40
2018-04-25T06:24:16.122Z,94.40
2018-04-25T06:26:43.554Z,93.80
2018-04-25T06:29:11.066Z,93.70
2018-04-25T06:31:38.486Z,93.80
2018-04-25T06:34:05.935Z,93.60
2018-04-25T06:36:34.150Z,93.30
2018-04-25T06:39:01.626Z,93.20
2018-04-25T06:41:29.086Z,93.70
2018-04-25T06:43:57.310Z,92.40
2018-04-25T06:46:24.747Z,92.30
2018-04-25T06:48:52.211Z,93.30
2018-04-25T06:51:19.671Z,93.60
2018-04-25T06:53:47.177Z,93.50
2018-04-25T06:56:14.623Z,92.90
2018-04-25T06:58:42.075Z,92.20
2018-04-25T07:01:09.527Z,92.20
2018-04-25T07:03:36.986Z,92.30
2018-04-25T07:06:04.466Z,92.70
2018-04-25T07:08:31.949Z,92.30
2018-04-25T07:10:59.368Z,92.30
2018-04-25T07:13:26.874Z,92.30
2018-04-25T07:15:54.286Z,92.00
2018-04-25T07:18:21.734Z,91.30
2018-04-25T07:20:49.190Z,91.20
2018-04-25T07:23:16.651Z,91.60
2018-04-25T07:25:44.109Z,91.90
2018-04-25T07:28:11.627Z,93.00
2018-04-25T07:30:39.082Z,92.30
2018-04-25T07:33:06.623Z,91.70
2018-04-25T07:35:34.117Z,91.10
2018-04-25T07:38:01.556Z,90.80
2018-04-25T07:40:29.020Z,90.30
2018-04-25T07:42:56.475Z,90.60
2018-04-25T07:45:23.969Z,92.80
2018-04-25T07:47:51.439Z,92.30
2018-04-25T07:50:18.911Z,92.10
2018-04-25T07:52:47.121Z,92.20
2018-04-25T07:55:14.574Z,92.20
2018-04-25T07:57:42.121Z,91.50
2018-04-25T08:00:09.473Z,91.80
2018-04-25T08:02:36.959Z,91.70
2018-04-25T08:05:04.431Z,92.40
2018-04-25T08:07:31.888Z,92.40
2018-04-25T08:09:59.367Z,92.00
2018-04-25T08:12:38.698Z,91.50
2018-04-25T08:15:18.057Z,91.80
2018-04-25T08:17:58.338Z,91.60
2018-04-25T08:23:39.374Z,91.60
2018-04-25T08:26:06.874Z,92.40
2018-04-25T08:28:34.388Z,92.00
2018-04-25T08:31:01.849Z,92.60
2018-04-25T08:33:29.352Z,92.20
2018-04-25T08:35:57.569Z,92.80
2018-04-25T08:38:25.031Z,92.80
2018-04-25T08:40:52.564Z,93.20
2018-04-25T08:43:20.027Z,93.50
2018-04-25T08:45:47.495Z,93.70
2018-04-25T08:48:14.946Z,93.30
2018-04-25T08:50:42.425Z,94.00
2018-04-25T08:53:09.937Z,93.60
2018-04-25T08:55:37.440Z,93.60
2018-04-25T08:58:04.910Z,93.20
2018-04-25T09:00:32.390Z,93.10
2018-04-25T09:03:00.605Z,92.80
2018-04-25T09:05:28.092Z,92.70
2018-04-25T09:07:55.551Z,93.20
2018-04-25T09:10:23.052Z,93.20
2018-04-25T09:12:51.277Z,93.40
2018-04-25T09:15:18.747Z,93.40
2018-04-25T09:17:46.186Z,93.20
2018-04-25T09:20:13.652Z,92.90
2018-04-25T09:22:41.154Z,94.00
2018-04-25T09:25:08.632Z,93.90
2018-04-25T09:27:36.143Z,93.20
2018-04-25T09:30:03.641Z,93.40
2018-04-25T09:32:31.084Z,93.30
2018-04-25T09:34:59.309Z,93.20
2018-04-25T09:37:26.778Z,93.20
2018-04-25T09:39:54.247Z,93.50
2018-04-25T09:42:21.713Z,93.10
2018-04-25T09:44:49.147Z,93.00
2018-04-25T09:47:17.167Z,92.40
2018-04-25T09:49:45.397Z,92.10
2018-04-25T09:52:12.863Z,92.00
2018-04-25T09:54:41.132Z,91.60
2018-04-25T09:57:08.596Z,91.60
2018-04-25T09:59:36.053Z,89.10
2018-04-25T10:02:03.541Z,88.90
2018-04-25T10:04:31.770Z,90.20
2018-04-25T10:06:59.239Z,90.10
2018-04-25T10:09:26.709Z,90.30
2018-04-25T10:11:54.168Z,91.20
2018-04-25T10:14:22.421Z,92.20
2018-04-25T10:16:49.893Z,92.20
2018-04-25T10:19:17.370Z,92.30
2018-04-25T10:21:44.847Z,92.10
2018-04-25T10:24:12.378Z,91.40
2018-04-25T10:26:39.816Z,90.10
2018-04-25T10:29:07.283Z,90.30
2018-04-25T10:31:34.751Z,91.50
2018-04-25T10:34:02.203Z,91.30
2018-04-25T10:36:29.695Z,91.30
2018-04-25T10:38:57.221Z,91.80
2018-04-25T10:41:24.646Z,92.60
2018-04-25T10:43:52.151Z,93.10
2018-04-25T10:46:20.391Z,93.30
2018-04-25T10:48:47.990Z,93.30
2018-04-25T10:51:15.399Z,93.50
2018-04-25T10:53:42.850Z,93.80
2018-04-25T10:56:10.310Z,93.60
2018-04-25T10:58:37.771Z,93.90
2018-04-25T11:01:05.247Z,93.90
2018-04-25T11:03:32.710Z,94.00
2018-04-25T11:06:00.191Z,93.70
2018-04-25T11:08:28.416Z,93.70
2018-04-25T11:10:55.887Z,93.70
2018-04-25T11:13:23.359Z,93.90
2018-04-25T11:15:50.822Z,93.90
2018-04-25T11:18:18.275Z,94.00
2018-04-25T11:20:45.750Z,95.10
2018-04-25T11:23:14.011Z,97.80
2018-04-25T11:25:41.449Z,97.80
2018-04-25T11:28:08.919Z,98.20
2018-04-25T11:30:37.190Z,99.40
2018-04-25T11:33:04.685Z,99.40
2018-04-25T11:35:32.130Z,98.60
2018-04-25T11:38:00.365Z,98.60
2018-04-25T11:40:27.837Z,98.60
2018-04-25T11:42:55.311Z,96.90
2018-04-25T11:45:22.776Z,95.60
2018-04-25T11:47:50.287Z,94.80
2018-04-25T11:50:17.741Z,95.10
2018-04-25T11:52:45.242Z,94.50
2018-04-25T11:55:12.720Z,93.80
2018-04-25T11:57:40.171Z,93.90
2018-04-25T12:00:08.386Z,93.50
2018-04-25T12:02:35.889Z,93.50
2018-04-25T12:05:03.447Z,93.80
2018-04-25T12:07:30.900Z,93.90
2018-04-25T12:09:58.346Z,94.40
2018-04-25T12:12:25.833Z,93.60
2018-04-25T12:14:54.050Z,93.30
2018-04-25T12:17:21.519Z,93.30
2018-04-25T12:19:49.014Z,93.40
2018-04-25T12:22:17.234Z,94.20
2018-04-25T12:24:44.733Z,94.50
2018-04-25T12:27:12.201Z,94.30
2018-04-25T12:29:39.694Z,94.30
2018-04-25T12:32:07.104Z,94.80
2018-04-25T12:34:34.579Z,95.00
2018-04-25T12:37:02.032Z,95.00
2018-04-25T12:39:29.480Z,95.20
2018-04-25T12:41:56.939Z,94.80
2018-04-25T12:44:24.399Z,94.60
2018-04-25T12:46:51.855Z,94.40
2018-04-25T12:49:19.926Z,94.10
2018-04-25T12:51:47.390Z,94.10
2018-04-25T12:54:14.842Z,94.40
2018-04-25T12:56:42.286Z,94.80
2018-04-25T12:59:09.735Z,94.90
2018-04-25T13:01:37.227Z,95.00
2018-04-25T13:04:04.649Z,95.20
2018-04-25T13:06:32.134Z,94.70
2018-04-25T13:09:00.357Z,94.20
2018-04-25T13:11:27.817Z,94.20
2018-04-25T13:13:55.275Z,94.60
2018-04-25T13:16:22.734Z,94.70
2018-04-25T13:18:50.186Z,94.40
2018-04-25T13:21:17.713Z,94.10
2018-04-25T13:23:45.098Z,93.80
2018-04-25T13:26:12.554Z,93.20
2018-04-25T13:28:40.015Z,92.80
2018-04-25T13:31:07.491Z,92.50
2018-04-25T13:33:34.947Z,91.80
2018-04-25T13:36:02.407Z,91.40
2018-04-25T13:38:29.882Z,91.00
2018-04-25T13:40:57.326Z,90.80
2018-04-25T13:43:24.779Z,90.90
2018-04-25T13:45:52.224Z,90.30
2018-04-25T13:48:19.695Z,90.20
2018-04-25T13:50:47.164Z,90.10
2018-04-25T13:53:14.687Z,90.60
2018-04-25T13:55:42.123Z,90.80
2018-04-25T13:58:10.347Z,90.70
2018-04-25T14:00:37.803Z,90.60
2018-04-25T14:03:05.262Z,90.90
2018-04-25T14:05:32.711Z,91.10
2018-04-25T14:08:00.165Z,91.30
2018-04-25T14:10:27.634Z,91.30
2018-04-25T14:12:55.097Z,91.10
2018-04-25T14:15:22.553Z,90.60
2018-04-25T14:17:50.009Z,90.50
2018-04-25T14:20:17.479Z,90.40
2018-04-25T14:22:44.927Z,88.40
2018-04-25T14:25:12.387Z,89.50
2018-04-25T14:27:39.837Z,89.10
2018-04-25T14:30:07.312Z,88.50
2018-04-25T14:32:34.742Z,89.90
2018-04-25T14:35:02.185Z,89.50
2018-04-25T14:37:29.632Z,89.40
2018-04-25T14:39:57.097Z,89.40
2018-04-25T14:42:24.539Z,90.00
2018-04-25T14:44:51.972Z,88.70
2018-04-25T14:47:20.198Z,88.60
2018-04-25T14:49:47.648Z,88.60
2018-04-25T14:52:15.095Z,87.50
2018-04-25T14:54:42.636Z,87.30
2018-04-25T14:57:10.025Z,83.80
2018-04-25T14:59:37.486Z,85.80
2018-04-25T15:02:04.935Z,85.00
2018-04-25T15:04:32.406Z,83.90
2018-04-25T15:06:59.852Z,85.30
2018-04-25T15:09:27.307Z,86.70
2018-04-25T15:11:54.756Z,86.40
2018-04-25T15:14:22.214Z,85.90
2018-04-25T15:16:50.424Z,86.80
2018-04-25T15:19:17.887Z,86.70
2018-04-25T15:21:45.325Z,87.90
2018-04-25T15:24:12.776Z,86.70
2018-04-25T15:26:40.255Z,86.70
2018-04-25T15:29:07.724Z,88.30
2018-04-25T15:31:35.216Z,87.70
2018-04-25T15:34:02.666Z,88.10
2018-04-25T15:36:30.112Z,85.70
2018-04-25T15:38:58.330Z,86.70
2018-04-25T15:41:25.791Z,86.60
2018-04-25T15:43:53.259Z,87.90
2018-04-25T15:46:20.716Z,86.30
2018-04-25T15:48:48.168Z,85.40
2018-04-25T15:51:15.650Z,84.70
2018-04-25T15:53:43.098Z,83.60
2018-04-25T15:56:10.555Z,89.10
2018-04-25T15:58:38.014Z,91.30
2018-04-25T16:01:05.470Z,92.10
2018-04-25T16:03:32.922Z,93.00
2018-04-25T16:06:00.380Z,93.60
2018-04-25T16:08:27.823Z,93.70
2018-04-25T16:10:55.272Z,93.90
2018-04-25T16:13:22.709Z,94.20
2018-04-25T16:15:50.159Z,94.20
2018-04-25T16:18:17.635Z,94.60
2018-04-25T16:20:45.107Z,94.50
2018-04-25T16:23:12.612Z,94.50
2018-04-25T16:25:40.838Z,95.00
2018-04-25T16:28:08.320Z,94.90
2018-04-25T16:30:35.791Z,94.60
2018-04-25T16:33:03.259Z,94.70
2018-04-25T16:35:31.491Z,95.90
2018-04-25T16:37:58.948Z,95.90
2018-04-25T16:40:26.432Z,97.00
2018-04-25T16:42:53.917Z,99.90
2018-04-25T16:45:22.138Z,99.90
2018-04-25T16:47:49.631Z,99.90
2018-04-25T16:50:17.079Z,99.90
2018-04-25T16:52:44.541Z,99.90
2018-04-25T16:55:11.983Z,99.90
2018-04-25T16:57:39.457Z,99.90
2018-04-25T17:00:06.887Z,99.90
2018-04-25T17:02:34.351Z,99.90
2018-04-25T17:05:01.787Z,99.90
2018-04-25T17:07:29.234Z,99.90
2018-04-25T17:09:56.685Z,99.90
2018-04-25T17:12:24.146Z,99.90
2018-04-25T17:14:51.656Z,99.90
2018-04-25T17:17:19.078Z,99.90
2018-04-25T17:19:46.530Z,99.90
2018-04-25T17:22:14.010Z,99.90
2018-04-25T17:24:41.447Z,99.90
2018-04-25T17:27:08.919Z,99.90
2018-04-25T17:29:36.369Z,99.90
2018-04-25T17:32:03.850Z,99.90
2018-04-25T17:34:31.278Z,99.90
2018-04-25T17:36:58.739Z,99.90
2018-04-25T17:39:26.210Z,99.90
2018-04-25T17:41:53.674Z,99.90
2018-04-25T17:44:21.098Z,99.90
2018-04-25T17:46:48.577Z,99.90
2018-04-25T17:49:16.021Z,99.90
2018-04-25T17:51:43.492Z,99.90
2018-04-25T17:54:10.944Z,99.90
2018-04-25T17:56:38.405Z,99.90
2018-04-25T17:59:05.870Z,99.90
2018-04-25T18:01:33.329Z,99.90
2018-04-25T18:04:00.774Z,99.90
2018-04-25T18:06:28.227Z,99.90
2018-04-25T18:08:55.678Z,99.90
2018-04-25T18:11:23.130Z,99.90
2018-04-25T18:13:50.601Z,99.90
2018-04-25T18:16:18.066Z,99.90
2018-04-25T18:18:45.510Z,99.90
2018-04-25T18:21:12.979Z,99.90
2018-04-25T18:23:40.429Z,99.90
2018-04-25T18:26:07.898Z,99.90
2018-04-25T18:28:35.382Z,99.90
2018-04-25T18:31:03.597Z,99.90
2018-04-25T18:33:31.057Z,99.90
2018-04-25T18:35:58.505Z,99.90
2018-04-25T18:38:25.963Z,99.90
2018-04-25T18:40:53.442Z,99.90
2018-04-25T18:43:20.898Z,99.90
2018-04-25T18:45:48.391Z,99.90
2018-04-25T18:48:15.846Z,99.90
2018-04-25T18:50:43.323Z,99.90
2018-04-25T18:53:11.573Z,99.90
2018-04-25T18:55:39.018Z,99.90
2018-04-25T18:58:06.505Z,99.90
2018-04-25T19:00:33.925Z,99.90
2018-04-25T19:03:01.405Z,99.90
2018-04-25T19:05:28.858Z,99.90
2018-04-25T19:07:56.313Z,99.90
2018-04-25T19:10:23.749Z,99.90
2018-04-25T19:12:51.236Z,99.90
2018-04-25T19:15:18.695Z,99.90
2018-04-25T19:17:46.143Z,99.90
2018-04-25T19:20:13.616Z,99.90
2018-04-25T19:22:41.068Z,99.90
2018-04-25T19:25:08.553Z,99.90
2018-04-25T19:27:36.033Z,99.90
2018-04-25T19:30:03.503Z,99.90
2018-04-25T19:32:30.975Z,99.90
2018-04-25T19:34:58.482Z,99.90
2018-04-25T19:37:25.874Z,99.90
2018-04-25T19:39:53.340Z,99.90
2018-04-25T19:42:20.795Z,99.90
2018-04-25T19:44:48.254Z,99.90
2018-04-25T19:47:15.688Z,99.90
2018-04-25T19:49:43.117Z,99.90
2018-04-25T19:52:11.342Z,99.90
2018-04-25T19:54:38.791Z,99.90
2018-04-25T19:57:06.278Z,99.90
2018-04-25T19:59:33.714Z,99.90
2018-04-25T20:02:01.183Z,99.90
2018-04-25T20:04:28.633Z,99.90
2018-04-25T20:06:56.153Z,99.90
2018-04-25T20:09:23.651Z,99.90
2018-04-25T20:11:51.111Z,99.90
2018-04-25T20:14:18.571Z,99.90
2018-04-25T20:16:46.030Z,99.90
2018-04-25T20:19:13.491Z,99.90
2018-04-25T20:21:40.943Z,99.90
2018-04-25T20:24:08.423Z,99.90
2018-04-25T20:26:35.895Z,99.90
2018-04-25T20:29:04.104Z,99.90
2018-04-25T20:31:31.567Z,99.90
2018-04-25T20:33:59.036Z,99.90
2018-04-25T20:36:26.493Z,99.90
2018-04-25T20:38:53.941Z,99.90
2018-04-25T20:41:21.391Z,99.90
2018-04-25T20:43:48.885Z,99.90
2018-04-25T20:46:16.355Z,99.90
2018-04-25T20:48:43.809Z,99.90
2018-04-25T20:51:11.245Z,99.90
2018-04-25T20:53:38.690Z,99.90
2018-04-25T20:56:06.134Z,99.90
2018-04-25T20:58:33.641Z,99.90
2018-04-25T21:01:01.074Z,99.90
2018-04-25T21:03:28.531Z,99.90
2018-04-25T21:05:55.970Z,99.90
2018-04-25T21:08:23.431Z,99.90
2018-04-25T21:10:50.866Z,99.90
2018-04-25T21:13:18.453Z,99.90
2018-04-25T21:15:45.904Z,99.90
2018-04-25T21:18:13.354Z,99.90
2018-04-25T21:20:41.509Z,99.90
2018-04-25T21:23:08.997Z,99.90
2018-04-25T21:25:36.446Z,99.90
2018-04-25T21:28:03.961Z,99.90
2018-04-25T21:30:32.190Z,99.90
2018-04-25T21:32:59.628Z,99.90
2018-04-25T21:35:27.077Z,99.90
2018-04-25T21:37:54.545Z,99.90
2018-04-25T21:40:21.998Z,99.90
2018-04-25T21:42:49.443Z,99.90
2018-04-25T21:45:16.915Z,99.90
2018-04-25T21:47:44.641Z,99.90
2018-04-25T21:50:12.854Z,99.90
2018-04-25T21:52:40.303Z,99.90
2018-04-25T21:55:07.758Z,99.90
2018-04-25T21:57:35.216Z,99.90
2018-04-25T22:00:02.664Z,99.90
2018-04-25T22:02:30.121Z,99.90
2018-04-25T22:04:57.566Z,99.90
2018-04-25T22:07:25.769Z,99.90
2018-04-25T22:09:53.256Z,99.90
2018-04-25T22:12:20.685Z,99.90
2018-04-25T22:14:48.137Z,99.90
2018-04-25T22:17:15.582Z,99.90
2018-04-25T22:19:43.037Z,99.90
2018-04-25T22:22:10.521Z,99.90
2018-04-25T22:24:37.967Z,99.90
2018-04-25T22:27:05.412Z,99.90
2018-04-25T22:29:32.885Z,99.90
2018-04-25T22:32:00.396Z,99.90
2018-04-25T22:34:27.782Z,99.90
2018-04-25T22:36:55.226Z,99.90
2018-04-25T22:39:23.435Z,99.90
2018-04-25T22:41:50.886Z,99.90
2018-04-25T22:44:18.339Z,99.90
2018-04-25T22:46:45.770Z,99.90
2018-04-25T22:49:13.986Z,99.90
2018-04-25T22:51:41.438Z,99.90
2018-04-25T22:54:08.880Z,99.90
2018-04-25T22:56:36.318Z,99.90
2018-04-25T22:59:04.538Z,99.90
2018-04-25T23:01:31.979Z,99.90
2018-04-25T23:03:59.430Z,99.90
2018-04-25T23:06:26.886Z,99.90
2018-04-25T23:08:54.335Z,99.90
2018-04-25T23:11:21.765Z,99.90
2018-04-25T23:13:49.982Z,99.90
2018-04-25T23:16:17.431Z,99.90
2018-04-25T23:18:44.864Z,99.90
2018-04-25T23:21:13.090Z,99.90
2018-04-25T23:23:40.529Z,99.90
2018-04-25T23:26:08.751Z,99.90
2018-04-25T23:28:36.199Z,99.90
2018-04-25T23:31:03.676Z,99.90
2018-04-25T23:33:31.109Z,99.90
2018-04-25T23:35:58.582Z,99.90
2018-04-25T23:38:26.049Z,99.90
2018-04-25T23:40:53.488Z,99.90
2018-04-25T23:43:20.933Z,99.90
2018-04-25T23:45:48.394Z,99.90
2018-04-25T23:48:15.830Z,99.90
2018-04-25T23:50:43.286Z,99.90
2018-04-25T23:53:10.723Z,99.90
2018-04-25T23:55:38.174Z,99.90
2018-04-25T23:58:05.610Z,99.90
